Time;durP1;ratioP1;P1;durP2;ratioP2;P2;SDS_P1;SDS_P2;PMS_P1;PMS_P2;Temp;Humidity;BMP_temperature;BMP_pressure;BME280_temperature;BME280_humidity;BME280_pressure;Samples;Min_cycle;Max_cycle;Signal;HPM_P1;HPM_P2
2021/02/16 00:00:11;;;;;;;4.7;4.2;;;;;;;1.95;100;96036.19;;;;
2021/02/16 00:01:13;;;;;;;4.7;4.2;;;;;;;1.95;100;96036.19;;;;
2021/02/16 00:02:13;;;;;;;4.7;4.2;;;;;;;1.95;100;96036.19;;;;
2021/02/16 00:03:15;;;;;;;4.7;4.2;;;;;;;1.95;100;96036.19;;;;
2021/02/16 00:04:15;;;;;;;4.7;4.2;;;;;;;1.95;100;96036.19;;;;
2021/02/16 00:05:16;;;;;;;4.7;4.2;;;;;;;1.95;100;96036.19;;;;
2021/02/16 00:06:17;;;;;;;4.7;4.2;;;;;;;1.95;100;96036.19;;;;
2021/02/16 00:07:17;;;;;;;4.7;4.2;;;;;;;1.95;100;96036.19;;;;
2021/02/16 00:08:19;;;;;;;4.7;4.2;;;;;;;1.95;100;96036.19;;;;
2021/02/16 00:09:19;;;;;;;4.25;3.85;;;;;;;1.98;100;96028.78;;;;
2021/02/16 00:10:20;;;;;;;4.25;3.85;;;;;;;1.98;100;96028.78;;;;
2021/02/16 00:11:21;;;;;;;4.25;3.85;;;;;;;1.98;100;96028.78;;;;
2021/02/16 00:12:21;;;;;;;4.25;3.85;;;;;;;1.98;100;96028.78;;;;
2021/02/16 00:13:22;;;;;;;4.25;3.85;;;;;;;1.98;100;96028.78;;;;
2021/02/16 00:14:22;;;;;;;4.25;3.85;;;;;;;1.98;100;96028.78;;;;
2021/02/16 00:15:23;;;;;;;4.25;3.85;;;;;;;1.98;100;96028.78;;;;
2021/02/16 00:16:24;;;;;;;4.25;3.85;;;;;;;1.98;100;96028.78;;;;
2021/02/16 00:17:24;;;;;;;4.25;3.85;;;;;;;1.98;100;96028.78;;;;
2021/02/16 00:18:25;;;;;;;4.25;3.85;;;;;;;1.98;100;96028.78;;;;
2021/02/16 00:19:25;;;;;;;4.25;3.85;;;;;;;1.98;100;96028.78;;;;
2021/02/16 00:20:26;;;;;;;4.15;3.75;;;;;;;2;100;96029.86;;;;
2021/02/16 00:21:28;;;;;;;4.15;3.75;;;;;;;2;100;96029.86;;;;
2021/02/16 00:22:28;;;;;;;4.15;3.75;;;;;;;2;100;96029.86;;;;
2021/02/16 00:23:29;;;;;;;4.15;3.75;;;;;;;2;100;96029.86;;;;
2021/02/16 00:24:29;;;;;;;4.15;3.75;;;;;;;2;100;96029.86;;;;
2021/02/16 00:25:31;;;;;;;4.15;3.75;;;;;;;2;100;96029.86;;;;
2021/02/16 00:26:31;;;;;;;4.15;3.75;;;;;;;2;100;96029.86;;;;
2021/02/16 00:27:32;;;;;;;4.15;3.75;;;;;;;2;100;96029.86;;;;
2021/02/16 00:28:33;;;;;;;4.15;3.75;;;;;;;2;100;96029.86;;;;
2021/02/16 00:29:34;;;;;;;4.15;3.75;;;;;;;2;100;96029.86;;;;
2021/02/16 00:30:34;;;;;;;4;3;;;;;;;2.1;100;96029.72;;;;
2021/02/16 00:31:35;;;;;;;4;3;;;;;;;2.1;100;96029.72;;;;
2021/02/16 00:32:35;;;;;;;4;3;;;;;;;2.1;100;96029.72;;;;
2021/02/16 00:33:36;;;;;;;4;3;;;;;;;2.1;100;96029.72;;;;
2021/02/16 00:34:36;;;;;;;4;3;;;;;;;2.1;100;96029.72;;;;
2021/02/16 00:35:37;;;;;;;4;3;;;;;;;2.1;100;96029.72;;;;
2021/02/16 00:36:38;;;;;;;4;3;;;;;;;2.1;100;96029.72;;;;
2021/02/16 00:37:38;;;;;;;4;3;;;;;;;2.1;100;96029.72;;;;
2021/02/16 00:38:38;;;;;;;4;3;;;;;;;2.1;100;96029.72;;;;
2021/02/16 00:39:39;;;;;;;4;3;;;;;;;2.1;100;96029.72;;;;
2021/02/16 00:40:40;;;;;;;4;3;;;;;;;2.1;100;96029.72;;;;
2021/02/16 00:41:40;;;;;;;2.35;2.15;;;;;;;2.44;100;96029.47;;;;
2021/02/16 00:42:41;;;;;;;2.35;2.15;;;;;;;2.44;100;96029.47;;;;
2021/02/16 00:43:42;;;;;;;2.35;2.15;;;;;;;2.44;100;96029.47;;;;
2021/02/16 00:44:42;;;;;;;2.35;2.15;;;;;;;2.44;100;96029.47;;;;
2021/02/16 00:45:43;;;;;;;2.35;2.15;;;;;;;2.44;100;96029.47;;;;
2021/02/16 00:46:43;;;;;;;2.35;2.15;;;;;;;2.44;100;96029.47;;;;
2021/02/16 00:47:44;;;;;;;2.35;2.15;;;;;;;2.44;100;96029.47;;;;
2021/02/16 00:48:45;;;;;;;2.35;2.15;;;;;;;2.44;100;96029.47;;;;
2021/02/16 00:49:45;;;;;;;2.35;2.15;;;;;;;2.44;100;96029.47;;;;
2021/02/16 00:50:46;;;;;;;2.35;2.15;;;;;;;2.44;100;96029.47;;;;
2021/02/16 00:51:46;;;;;;;2.05;1.8;;;;;;;2.94;100;96012.77;;;;
2021/02/16 00:52:47;;;;;;;2.05;1.8;;;;;;;2.94;100;96012.77;;;;
2021/02/16 00:53:47;;;;;;;2.05;1.8;;;;;;;2.94;100;96012.77;;;;
2021/02/16 00:54:48;;;;;;;2.05;1.8;;;;;;;2.94;100;96012.77;;;;
2021/02/16 00:55:48;;;;;;;2.05;1.8;;;;;;;2.94;100;96012.77;;;;
2021/02/16 00:56:49;;;;;;;2.05;1.8;;;;;;;2.94;100;96012.77;;;;
2021/02/16 00:57:49;;;;;;;2.05;1.8;;;;;;;2.94;100;96012.77;;;;
2021/02/16 00:58:50;;;;;;;2.05;1.8;;;;;;;2.94;100;96012.77;;;;
2021/02/16 00:59:50;;;;;;;2.05;1.8;;;;;;;2.94;100;96012.77;;;;
2021/02/16 01:00:51;;;;;;;2.05;1.8;;;;;;;2.94;100;96012.77;;;;
2021/02/16 01:01:51;;;;;;;2.05;1.8;;;;;;;2.94;100;96012.77;;;;
2021/02/16 01:02:52;;;;;;;2.05;1.5;;;;;;;3.29;100;95995.79;;;;
2021/02/16 01:03:53;;;;;;;2.05;1.5;;;;;;;3.29;100;95995.79;;;;
2021/02/16 01:04:54;;;;;;;2.05;1.5;;;;;;;3.29;100;95995.79;;;;
2021/02/16 01:05:54;;;;;;;2.05;1.5;;;;;;;3.29;100;95995.79;;;;
2021/02/16 01:06:55;;;;;;;2.05;1.5;;;;;;;3.29;100;95995.79;;;;
2021/02/16 01:07:55;;;;;;;2.05;1.5;;;;;;;3.29;100;95995.79;;;;
2021/02/16 01:08:56;;;;;;;2.05;1.5;;;;;;;3.29;100;95995.79;;;;
2021/02/16 01:09:56;;;;;;;2.05;1.5;;;;;;;3.29;100;95995.79;;;;
2021/02/16 01:10:57;;;;;;;2.05;1.5;;;;;;;3.29;100;95995.79;;;;
2021/02/16 01:11:57;;;;;;;2.05;1.5;;;;;;;3.29;100;95995.79;;;;
2021/02/16 01:12:58;;;;;;;2.05;1.5;;;;;;;3.29;100;95995.79;;;;
2021/02/16 01:13:58;;;;;;;1.85;1.2;;;;;;;3.62;100;95996.04;;;;
2021/02/16 01:14:59;;;;;;;1.85;1.2;;;;;;;3.62;100;95996.04;;;;
2021/02/16 01:15:59;;;;;;;1.85;1.2;;;;;;;3.62;100;95996.04;;;;
2021/02/16 01:17:00;;;;;;;1.85;1.2;;;;;;;3.62;100;95996.04;;;;
2021/02/16 01:18:01;;;;;;;1.85;1.2;;;;;;;3.62;100;95996.04;;;;
2021/02/16 01:19:01;;;;;;;1.85;1.2;;;;;;;3.62;100;95996.04;;;;
2021/02/16 01:20:02;;;;;;;1.85;1.2;;;;;;;3.62;100;95996.04;;;;
2021/02/16 01:21:03;;;;;;;1.85;1.2;;;;;;;3.62;100;95996.04;;;;
2021/02/16 01:22:04;;;;;;;1.85;1.2;;;;;;;3.62;100;95996.04;;;;
2021/02/16 01:23:05;;;;;;;1.85;1.2;;;;;;;3.62;100;95996.04;;;;
2021/02/16 01:24:05;;;;;;;1.3;1.2;;;;;;;3.85;100;95987.15;;;;
2021/02/16 01:25:07;;;;;;;1.3;1.2;;;;;;;3.85;100;95987.15;;;;
2021/02/16 01:26:09;;;;;;;1.3;1.2;;;;;;;3.85;100;95987.15;;;;
2021/02/16 01:27:09;;;;;;;1.3;1.2;;;;;;;3.85;100;95987.15;;;;
2021/02/16 01:28:10;;;;;;;1.3;1.2;;;;;;;3.85;100;95987.15;;;;
2021/02/16 01:29:10;;;;;;;1.3;1.2;;;;;;;3.85;100;95987.15;;;;
2021/02/16 01:30:11;;;;;;;1.3;1.2;;;;;;;3.85;100;95987.15;;;;
2021/02/16 01:31:12;;;;;;;1.3;1.2;;;;;;;3.85;100;95987.15;;;;
2021/02/16 01:32:12;;;;;;;1.3;1.2;;;;;;;3.85;100;95987.15;;;;
2021/02/16 01:33:13;;;;;;;1.3;1.2;;;;;;;3.85;100;95987.15;;;;
2021/02/16 01:34:13;;;;;;;1.3;1.2;;;;;;;3.85;100;95987.15;;;;
2021/02/16 01:35:14;;;;;;;1.25;1.1;;;;;;;3.98;100;95977.1;;;;
2021/02/16 01:36:15;;;;;;;1.25;1.1;;;;;;;3.98;100;95977.1;;;;
2021/02/16 01:37:15;;;;;;;1.25;1.1;;;;;;;3.98;100;95977.1;;;;
2021/02/16 01:38:16;;;;;;;1.25;1.1;;;;;;;3.98;100;95977.1;;;;
2021/02/16 01:39:16;;;;;;;1.25;1.1;;;;;;;3.98;100;95977.1;;;;
2021/02/16 01:40:17;;;;;;;1.25;1.1;;;;;;;3.98;100;95977.1;;;;
2021/02/16 01:41:18;;;;;;;1.25;1.1;;;;;;;3.98;100;95977.1;;;;
2021/02/16 01:42:18;;;;;;;1.25;1.1;;;;;;;3.98;100;95977.1;;;;
2021/02/16 01:43:19;;;;;;;1.25;1.1;;;;;;;3.98;100;95977.1;;;;
2021/02/16 01:44:20;;;;;;;1.25;1.1;;;;;;;3.98;100;95977.1;;;;
2021/02/16 01:45:21;;;;;;;1.6;1.2;;;;;;;4;100;95987.53;;;;
2021/02/16 01:46:21;;;;;;;1.6;1.2;;;;;;;4;100;95987.53;;;;
2021/02/16 01:47:22;;;;;;;1.6;1.2;;;;;;;4;100;95987.53;;;;
2021/02/16 01:48:37;;;;;;;1.6;1.2;;;;;;;4;100;95987.53;;;;
2021/02/16 01:49:37;;;;;;;1.6;1.2;;;;;;;4;100;95987.53;;;;
2021/02/16 01:50:38;;;;;;;1.6;1.2;;;;;;;4;100;95987.53;;;;
2021/02/16 01:51:39;;;;;;;1.6;1.2;;;;;;;4;100;95987.53;;;;
2021/02/16 01:52:40;;;;;;;1.6;1.2;;;;;;;4;100;95987.53;;;;
2021/02/16 01:53:41;;;;;;;1.6;1.2;;;;;;;4;100;95987.53;;;;
2021/02/16 01:54:42;;;;;;;1.6;1.2;;;;;;;4;100;95987.53;;;;
2021/02/16 01:55:45;;;;;;;1.35;1.25;;;;;;;4.01;100;95986.92;;;;
2021/02/16 01:56:49;;;;;;;1.35;1.25;;;;;;;4.01;100;95986.92;;;;
2021/02/16 01:57:56;;;;;;;1.35;1.25;;;;;;;4.01;100;95986.92;;;;
2021/02/16 01:59:00;;;;;;;1.35;1.25;;;;;;;4.01;100;95986.92;;;;
2021/02/16 02:00:02;;;;;;;1.35;1.25;;;;;;;4.01;100;95986.92;;;;
2021/02/16 02:01:06;;;;;;;1.35;1.25;;;;;;;4.01;100;95986.92;;;;
2021/02/16 02:02:08;;;;;;;1.35;1.25;;;;;;;4.01;100;95986.92;;;;
2021/02/16 02:03:12;;;;;;;1.35;1.25;;;;;;;4.01;100;95986.92;;;;
2021/02/16 02:04:18;;;;;;;1.35;1.25;;;;;;;4.01;100;95986.92;;;;
2021/02/16 02:05:25;;;;;;;1.35;1.25;;;;;;;4.01;100;95986.92;;;;
2021/02/16 02:06:27;;;;;;;2.900001;1.4;;;;;;;4.02;100;95979.25;;;;
2021/02/16 02:07:31;;;;;;;2.900001;1.4;;;;;;;4.02;100;95979.25;;;;
2021/02/16 02:08:32;;;;;;;2.900001;1.4;;;;;;;4.02;100;95979.25;;;;
2021/02/16 02:09:37;;;;;;;2.900001;1.4;;;;;;;4.02;100;95979.25;;;;
2021/02/16 02:10:40;;;;;;;2.900001;1.4;;;;;;;4.02;100;95979.25;;;;
2021/02/16 02:11:43;;;;;;;2.900001;1.4;;;;;;;4.02;100;95979.25;;;;
2021/02/16 02:12:45;;;;;;;2.900001;1.4;;;;;;;4.02;100;95979.25;;;;
2021/02/16 02:13:53;;;;;;;2.900001;1.4;;;;;;;4.02;100;95979.25;;;;
2021/02/16 02:14:55;;;;;;;2.900001;1.4;;;;;;;4.02;100;95979.25;;;;
2021/02/16 02:15:57;;;;;;;2.900001;1.4;;;;;;;4.02;100;95979.25;;;;
2021/02/16 02:16:59;;;;;;;2.900001;1.4;;;;;;;4.02;100;95979.25;;;;
2021/02/16 02:18:00;;;;;;;1.6;1.25;;;;;;;4.03;100;95974.75;;;;
2021/02/16 02:19:01;;;;;;;1.6;1.25;;;;;;;4.03;100;95974.75;;;;
2021/02/16 02:20:03;;;;;;;1.6;1.25;;;;;;;4.03;100;95974.75;;;;
2021/02/16 02:21:05;;;;;;;1.6;1.25;;;;;;;4.03;100;95974.75;;;;
2021/02/16 02:22:05;;;;;;;1.6;1.25;;;;;;;4.03;100;95974.75;;;;
2021/02/16 02:23:10;;;;;;;1.6;1.25;;;;;;;4.03;100;95974.75;;;;
2021/02/16 02:24:11;;;;;;;1.6;1.25;;;;;;;4.03;100;95974.75;;;;
2021/02/16 02:25:11;;;;;;;1.6;1.25;;;;;;;4.03;100;95974.75;;;;
2021/02/16 02:26:17;;;;;;;1.6;1.25;;;;;;;4.03;100;95974.75;;;;
2021/02/16 02:27:23;;;;;;;1.6;1.25;;;;;;;4.03;100;95974.75;;;;
2021/02/16 02:28:27;;;;;;;1.55;1.45;;;;;;;4.06;100;95967.28;;;;
2021/02/16 02:29:28;;;;;;;1.55;1.45;;;;;;;4.06;100;95967.28;;;;
2021/02/16 02:30:31;;;;;;;1.55;1.45;;;;;;;4.06;100;95967.28;;;;
2021/02/16 02:31:41;;;;;;;1.55;1.45;;;;;;;4.06;100;95967.28;;;;
2021/02/16 02:32:51;;;;;;;1.55;1.45;;;;;;;4.06;100;95967.28;;;;
2021/02/16 02:34:01;;;;;;;1.55;1.45;;;;;;;4.06;100;95967.28;;;;
2021/02/16 02:35:12;;;;;;;1.55;1.45;;;;;;;4.06;100;95967.28;;;;
2021/02/16 02:36:15;;;;;;;1.55;1.45;;;;;;;4.06;100;95967.28;;;;
2021/02/16 02:37:16;;;;;;;1.55;1.45;;;;;;;4.06;100;95967.28;;;;
2021/02/16 02:38:18;;;;;;;1.55;1.45;;;;;;;4.06;100;95967.28;;;;
2021/02/16 02:39:20;;;;;;;1.5;1.4;;;;;;;4.08;100;95961.15;;;;
2021/02/16 02:40:20;;;;;;;1.5;1.4;;;;;;;4.08;100;95961.15;;;;
2021/02/16 02:41:21;;;;;;;1.5;1.4;;;;;;;4.08;100;95961.15;;;;
2021/02/16 02:42:21;;;;;;;1.5;1.4;;;;;;;4.08;100;95961.15;;;;
2021/02/16 02:43:23;;;;;;;1.5;1.4;;;;;;;4.08;100;95961.15;;;;
2021/02/16 02:44:24;;;;;;;1.5;1.4;;;;;;;4.08;100;95961.15;;;;
2021/02/16 02:45:24;;;;;;;1.5;1.4;;;;;;;4.08;100;95961.15;;;;
2021/02/16 02:46:28;;;;;;;1.5;1.4;;;;;;;4.08;100;95961.15;;;;
2021/02/16 02:47:29;;;;;;;1.5;1.4;;;;;;;4.08;100;95961.15;;;;
2021/02/16 02:48:30;;;;;;;1.5;1.4;;;;;;;4.08;100;95961.15;;;;
2021/02/16 02:49:30;;;;;;;1.5;1.4;;;;;;;4.13;100;95936.16;;;;
2021/02/16 02:50:30;;;;;;;1.5;1.4;;;;;;;4.13;100;95936.16;;;;
2021/02/16 02:51:32;;;;;;;1.5;1.4;;;;;;;4.13;100;95936.16;;;;
2021/02/16 02:52:48;;;;;;;1.5;1.4;;;;;;;4.13;100;95936.16;;;;
2021/02/16 02:54:01;;;;;;;1.5;1.4;;;;;;;4.13;100;95936.16;;;;
2021/02/16 02:55:02;;;;;;;1.5;1.4;;;;;;;4.13;100;95936.16;;;;
2021/02/16 02:56:03;;;;;;;1.5;1.4;;;;;;;4.13;100;95936.16;;;;
2021/02/16 02:57:04;;;;;;;1.5;1.4;;;;;;;4.13;100;95936.16;;;;
2021/02/16 02:58:05;;;;;;;1.5;1.4;;;;;;;4.13;100;95936.16;;;;
2021/02/16 02:59:08;;;;;;;1.5;1.4;;;;;;;4.13;100;95936.16;;;;
2021/02/16 03:00:09;;;;;;;2.4;1.45;;;;;;;4.16;100;95937.96;;;;
2021/02/16 03:01:10;;;;;;;2.4;1.45;;;;;;;4.16;100;95937.96;;;;
2021/02/16 03:02:11;;;;;;;2.4;1.45;;;;;;;4.16;100;95937.96;;;;
2021/02/16 03:03:11;;;;;;;2.4;1.45;;;;;;;4.16;100;95937.96;;;;
2021/02/16 03:04:14;;;;;;;2.4;1.45;;;;;;;4.16;100;95937.96;;;;
2021/02/16 03:05:16;;;;;;;2.4;1.45;;;;;;;4.16;100;95937.96;;;;
2021/02/16 03:06:17;;;;;;;2.4;1.45;;;;;;;4.16;100;95937.96;;;;
2021/02/16 03:07:24;;;;;;;2.4;1.45;;;;;;;4.16;100;95937.96;;;;
2021/02/16 03:08:31;;;;;;;2.4;1.45;;;;;;;4.16;100;95937.96;;;;
2021/02/16 03:09:35;;;;;;;2.4;1.45;;;;;;;4.16;100;95937.96;;;;
2021/02/16 03:11:47;;;;;;;1.4;1.3;;;;;;;4.17;100;95933.35;;;;
2021/02/16 03:28:24;;;;;;;3.3;1.4;;;;;;;4.19;100;95928.66;;;;
2021/02/16 03:29:24;;;;;;;3.3;1.4;;;;;;;4.19;100;95928.66;;;;
2021/02/16 03:30:24;;;;;;;3.3;1.4;;;;;;;4.19;100;95928.66;;;;
2021/02/16 03:31:25;;;;;;;3.3;1.4;;;;;;;4.19;100;95928.66;;;;
2021/02/16 03:32:26;;;;;;;1.2;1.1;;;;;;;4.22;100;95932.33;;;;
2021/02/16 03:33:26;;;;;;;1.2;1.1;;;;;;;4.22;100;95932.33;;;;
2021/02/16 03:34:27;;;;;;;1.2;1.1;;;;;;;4.22;100;95932.33;;;;
2021/02/16 03:35:27;;;;;;;1.2;1.1;;;;;;;4.22;100;95932.33;;;;
2021/02/16 03:36:28;;;;;;;1.2;1.1;;;;;;;4.22;100;95932.33;;;;
2021/02/16 03:37:28;;;;;;;1.2;1.1;;;;;;;4.22;100;95932.33;;;;
2021/02/16 03:38:29;;;;;;;1.2;1.1;;;;;;;4.22;100;95932.33;;;;
2021/02/16 03:39:30;;;;;;;1.2;1.1;;;;;;;4.22;100;95932.33;;;;
2021/02/16 03:40:33;;;;;;;1.2;1.1;;;;;;;4.22;100;95932.33;;;;
2021/02/16 03:41:33;;;;;;;1.2;1.1;;;;;;;4.22;100;95932.33;;;;
2021/02/16 03:42:34;;;;;;;1.2;1.1;;;;;;;4.22;100;95932.33;;;;
2021/02/16 03:43:35;;;;;;;1.25;1.15;;;;;;;4.28;100;95930.36;;;;
2021/02/16 03:44:36;;;;;;;1.25;1.15;;;;;;;4.28;100;95930.36;;;;
2021/02/16 03:45:36;;;;;;;1.25;1.15;;;;;;;4.28;100;95930.36;;;;
2021/02/16 03:46:37;;;;;;;1.25;1.15;;;;;;;4.28;100;95930.36;;;;
2021/02/16 03:47:37;;;;;;;1.25;1.15;;;;;;;4.28;100;95930.36;;;;
2021/02/16 03:48:38;;;;;;;1.25;1.15;;;;;;;4.28;100;95930.36;;;;
2021/02/16 03:49:39;;;;;;;1.25;1.15;;;;;;;4.28;100;95930.36;;;;
2021/02/16 03:50:39;;;;;;;1.25;1.15;;;;;;;4.28;100;95930.36;;;;
2021/02/16 03:51:40;;;;;;;1.25;1.15;;;;;;;4.28;100;95930.36;;;;
2021/02/16 03:52:41;;;;;;;1.25;1.15;;;;;;;4.28;100;95930.36;;;;
2021/02/16 03:53:41;;;;;;;2.35;1.1;;;;;;;4.31;100;95935.75;;;;
2021/02/16 03:54:42;;;;;;;2.35;1.1;;;;;;;4.31;100;95935.75;;;;
2021/02/16 03:55:42;;;;;;;2.35;1.1;;;;;;;4.31;100;95935.75;;;;
2021/02/16 03:56:43;;;;;;;2.35;1.1;;;;;;;4.31;100;95935.75;;;;
2021/02/16 03:57:43;;;;;;;2.35;1.1;;;;;;;4.31;100;95935.75;;;;
2021/02/16 03:58:44;;;;;;;2.35;1.1;;;;;;;4.31;100;95935.75;;;;
2021/02/16 03:59:44;;;;;;;2.35;1.1;;;;;;;4.31;100;95935.75;;;;
2021/02/16 04:00:45;;;;;;;2.35;1.1;;;;;;;4.31;100;95935.75;;;;
2021/02/16 04:01:45;;;;;;;2.35;1.1;;;;;;;4.31;100;95935.75;;;;
2021/02/16 04:02:46;;;;;;;2.35;1.1;;;;;;;4.31;100;95935.75;;;;
2021/02/16 04:03:46;;;;;;;2.35;1.1;;;;;;;4.31;100;95935.75;;;;
2021/02/16 04:04:47;;;;;;;1.3;1.2;;;;;;;4.32;100;95921.36;;;;
2021/02/16 04:05:48;;;;;;;1.3;1.2;;;;;;;4.32;100;95921.36;;;;
2021/02/16 04:06:48;;;;;;;1.3;1.2;;;;;;;4.32;100;95921.36;;;;
2021/02/16 04:07:49;;;;;;;1.3;1.2;;;;;;;4.32;100;95921.36;;;;
2021/02/16 04:08:49;;;;;;;1.3;1.2;;;;;;;4.32;100;95921.36;;;;
2021/02/16 04:09:50;;;;;;;1.3;1.2;;;;;;;4.32;100;95921.36;;;;
2021/02/16 04:10:50;;;;;;;1.3;1.2;;;;;;;4.32;100;95921.36;;;;
2021/02/16 04:11:52;;;;;;;1.3;1.2;;;;;;;4.32;100;95921.36;;;;
2021/02/16 04:12:53;;;;;;;1.3;1.2;;;;;;;4.32;100;95921.36;;;;
2021/02/16 04:13:54;;;;;;;1.3;1.2;;;;;;;4.32;100;95921.36;;;;
2021/02/16 04:14:54;;;;;;;1.5;1.2;;;;;;;4.3;100;95918.98;;;;
2021/02/16 04:15:55;;;;;;;1.5;1.2;;;;;;;4.3;100;95918.98;;;;
2021/02/16 04:16:55;;;;;;;1.5;1.2;;;;;;;4.3;100;95918.98;;;;
2021/02/16 04:17:56;;;;;;;1.5;1.2;;;;;;;4.3;100;95918.98;;;;
2021/02/16 04:18:56;;;;;;;1.5;1.2;;;;;;;4.3;100;95918.98;;;;
2021/02/16 04:19:57;;;;;;;1.5;1.2;;;;;;;4.3;100;95918.98;;;;
2021/02/16 04:20:58;;;;;;;1.5;1.2;;;;;;;4.3;100;95918.98;;;;
2021/02/16 04:21:58;;;;;;;1.5;1.2;;;;;;;4.3;100;95918.98;;;;
2021/02/16 04:22:59;;;;;;;1.5;1.2;;;;;;;4.3;100;95918.98;;;;
2021/02/16 04:23:59;;;;;;;1.5;1.2;;;;;;;4.3;100;95918.98;;;;
2021/02/16 04:25:00;;;;;;;1.5;1.2;;;;;;;4.3;100;95918.98;;;;
2021/02/16 04:26:01;;;;;;;2.5;1.35;;;;;;;4.37;100;95922.05;;;;
2021/02/16 04:27:01;;;;;;;2.5;1.35;;;;;;;4.37;100;95922.05;;;;
2021/02/16 04:28:02;;;;;;;2.5;1.35;;;;;;;4.37;100;95922.05;;;;
2021/02/16 04:29:03;;;;;;;2.5;1.35;;;;;;;4.37;100;95922.05;;;;
2021/02/16 04:30:04;;;;;;;2.5;1.35;;;;;;;4.37;100;95922.05;;;;
2021/02/16 04:31:06;;;;;;;2.5;1.35;;;;;;;4.37;100;95922.05;;;;
2021/02/16 04:32:06;;;;;;;2.5;1.35;;;;;;;4.37;100;95922.05;;;;
2021/02/16 04:33:07;;;;;;;2.5;1.35;;;;;;;4.37;100;95922.05;;;;
2021/02/16 04:34:07;;;;;;;2.5;1.35;;;;;;;4.37;100;95922.05;;;;
2021/02/16 04:35:08;;;;;;;2.5;1.35;;;;;;;4.37;100;95922.05;;;;
2021/02/16 04:36:09;;;;;;;1.9;1.2;;;;;;;4.4;100;95920.87;;;;
2021/02/16 04:37:10;;;;;;;1.9;1.2;;;;;;;4.4;100;95920.87;;;;
2021/02/16 04:38:11;;;;;;;1.9;1.2;;;;;;;4.4;100;95920.87;;;;
2021/02/16 04:39:12;;;;;;;1.9;1.2;;;;;;;4.4;100;95920.87;;;;
2021/02/16 04:40:12;;;;;;;1.9;1.2;;;;;;;4.4;100;95920.87;;;;
2021/02/16 04:41:13;;;;;;;1.9;1.2;;;;;;;4.4;100;95920.87;;;;
2021/02/16 04:42:14;;;;;;;1.9;1.2;;;;;;;4.4;100;95920.87;;;;
2021/02/16 04:43:14;;;;;;;1.9;1.2;;;;;;;4.4;100;95920.87;;;;
2021/02/16 04:44:15;;;;;;;1.9;1.2;;;;;;;4.4;100;95920.87;;;;
2021/02/16 04:45:15;;;;;;;1.9;1.2;;;;;;;4.4;100;95920.87;;;;
2021/02/16 04:46:16;;;;;;;1.9;1.2;;;;;;;4.4;100;95920.87;;;;
2021/02/16 04:47:16;;;;;;;1.6;1.5;;;;;;;4.36;100;95919.07;;;;
2021/02/16 04:48:17;;;;;;;1.6;1.5;;;;;;;4.36;100;95919.07;;;;
2021/02/16 04:49:18;;;;;;;1.6;1.5;;;;;;;4.36;100;95919.07;;;;
2021/02/16 04:50:18;;;;;;;1.6;1.5;;;;;;;4.36;100;95919.07;;;;
2021/02/16 04:51:19;;;;;;;1.6;1.5;;;;;;;4.36;100;95919.07;;;;
2021/02/16 04:52:20;;;;;;;1.6;1.5;;;;;;;4.36;100;95919.07;;;;
2021/02/16 04:53:20;;;;;;;1.6;1.5;;;;;;;4.36;100;95919.07;;;;
2021/02/16 04:54:21;;;;;;;1.6;1.5;;;;;;;4.36;100;95919.07;;;;
2021/02/16 04:55:21;;;;;;;1.6;1.5;;;;;;;4.36;100;95919.07;;;;
2021/02/16 04:56:22;;;;;;;1.6;1.5;;;;;;;4.36;100;95919.07;;;;
2021/02/16 04:57:22;;;;;;;2;1.65;;;;;;;4.42;100;95907.65;;;;
2021/02/16 04:58:23;;;;;;;2;1.65;;;;;;;4.42;100;95907.65;;;;
2021/02/16 04:59:23;;;;;;;2;1.65;;;;;;;4.42;100;95907.65;;;;
2021/02/16 05:00:25;;;;;;;2;1.65;;;;;;;4.42;100;95907.65;;;;
2021/02/16 05:01:25;;;;;;;2;1.65;;;;;;;4.42;100;95907.65;;;;
2021/02/16 05:02:26;;;;;;;2;1.65;;;;;;;4.42;100;95907.65;;;;
2021/02/16 05:03:26;;;;;;;2;1.65;;;;;;;4.42;100;95907.65;;;;
2021/02/16 05:04:27;;;;;;;2;1.65;;;;;;;4.42;100;95907.65;;;;
2021/02/16 05:05:27;;;;;;;2;1.65;;;;;;;4.42;100;95907.65;;;;
2021/02/16 05:06:28;;;;;;;2;1.65;;;;;;;4.42;100;95907.65;;;;
2021/02/16 05:07:28;;;;;;;2;1.65;;;;;;;4.42;100;95907.65;;;;
2021/02/16 05:08:29;;;;;;;1.85;1.5;;;;;;;4.5;100;95909.39;;;;
2021/02/16 05:09:29;;;;;;;1.85;1.5;;;;;;;4.5;100;95909.39;;;;
2021/02/16 05:10:30;;;;;;;1.85;1.5;;;;;;;4.5;100;95909.39;;;;
2021/02/16 05:11:36;;;;;;;1.85;1.5;;;;;;;4.5;100;95909.39;;;;
2021/02/16 05:12:48;;;;;;;1.85;1.5;;;;;;;4.5;100;95909.39;;;;
2021/02/16 05:13:57;;;;;;;1.85;1.5;;;;;;;4.5;100;95909.39;;;;
2021/02/16 05:21:04;;;;;;;1.8;1.55;;;;;;;4.43;100;95907.97;;;;
2021/02/16 05:22:32;;;;;;;1.8;1.55;;;;;;;4.43;100;95907.97;;;;
2021/02/16 05:23:33;;;;;;;1.8;1.55;;;;;;;4.43;100;95907.97;;;;
2021/02/16 05:24:33;;;;;;;1.8;1.55;;;;;;;4.43;100;95907.97;;;;
2021/02/16 05:25:34;;;;;;;1.8;1.55;;;;;;;4.43;100;95907.97;;;;
2021/02/16 05:26:34;;;;;;;1.8;1.55;;;;;;;4.43;100;95907.97;;;;
2021/02/16 05:27:35;;;;;;;1.8;1.55;;;;;;;4.43;100;95907.97;;;;
2021/02/16 05:28:37;;;;;;;1.8;1.55;;;;;;;4.43;100;95907.97;;;;
2021/02/16 05:29:38;;;;;;;2.5;1.8;;;;;;;4.37;100;95895.85;;;;
2021/02/16 05:30:39;;;;;;;2.5;1.8;;;;;;;4.37;100;95895.85;;;;
2021/02/16 05:31:41;;;;;;;2.5;1.8;;;;;;;4.37;100;95895.85;;;;
2021/02/16 05:32:43;;;;;;;2.5;1.8;;;;;;;4.37;100;95895.85;;;;
2021/02/16 05:33:44;;;;;;;2.5;1.8;;;;;;;4.37;100;95895.85;;;;
2021/02/16 05:34:44;;;;;;;2.5;1.8;;;;;;;4.37;100;95895.85;;;;
2021/02/16 05:35:45;;;;;;;2.5;1.8;;;;;;;4.37;100;95895.85;;;;
2021/02/16 05:36:45;;;;;;;2.5;1.8;;;;;;;4.37;100;95895.85;;;;
2021/02/16 05:37:46;;;;;;;2.5;1.8;;;;;;;4.37;100;95895.85;;;;
2021/02/16 05:38:46;;;;;;;2.5;1.8;;;;;;;4.37;100;95895.85;;;;
2021/02/16 05:39:47;;;;;;;2.5;1.8;;;;;;;4.37;100;95895.85;;;;
2021/02/16 05:40:49;;;;;;;2.35;1.9;;;;;;;4.38;100;95873.02;;;;
2021/02/16 05:41:50;;;;;;;2.35;1.9;;;;;;;4.38;100;95873.02;;;;
2021/02/16 05:42:50;;;;;;;2.35;1.9;;;;;;;4.38;100;95873.02;;;;
2021/02/16 05:43:54;;;;;;;2.35;1.9;;;;;;;4.38;100;95873.02;;;;
2021/02/16 05:44:55;;;;;;;2.35;1.9;;;;;;;4.38;100;95873.02;;;;
2021/02/16 05:45:55;;;;;;;2.35;1.9;;;;;;;4.38;100;95873.02;;;;
2021/02/16 05:46:56;;;;;;;2.35;1.9;;;;;;;4.38;100;95873.02;;;;
2021/02/16 05:48:00;;;;;;;2.35;1.9;;;;;;;4.38;100;95873.02;;;;
2021/02/16 05:49:03;;;;;;;2.35;1.9;;;;;;;4.38;100;95873.02;;;;
2021/02/16 05:50:08;;;;;;;2.35;1.9;;;;;;;4.38;100;95873.02;;;;
2021/02/16 05:51:13;;;;;;;2.7;2.15;;;;;;;4.4;100;95857.62;;;;
2021/02/16 05:52:15;;;;;;;2.7;2.15;;;;;;;4.4;100;95857.62;;;;
2021/02/16 05:53:16;;;;;;;2.7;2.15;;;;;;;4.4;100;95857.62;;;;
2021/02/16 05:54:17;;;;;;;2.7;2.15;;;;;;;4.4;100;95857.62;;;;
2021/02/16 05:55:17;;;;;;;2.7;2.15;;;;;;;4.4;100;95857.62;;;;
2021/02/16 05:56:18;;;;;;;2.7;2.15;;;;;;;4.4;100;95857.62;;;;
2021/02/16 05:57:21;;;;;;;2.7;2.15;;;;;;;4.4;100;95857.62;;;;
2021/02/16 05:58:22;;;;;;;2.7;2.15;;;;;;;4.4;100;95857.62;;;;
2021/02/16 05:59:23;;;;;;;2.7;2.15;;;;;;;4.4;100;95857.62;;;;
2021/02/16 06:00:23;;;;;;;2.7;2.15;;;;;;;4.4;100;95857.62;;;;
2021/02/16 06:01:24;;;;;;;2.7;2.15;;;;;;;4.4;100;95857.62;;;;
2021/02/16 06:02:24;;;;;;;2.55;2;;;;;;;4.39;100;95841.17;;;;
2021/02/16 06:03:27;;;;;;;2.55;2;;;;;;;4.39;100;95841.17;;;;
2021/02/16 06:04:30;;;;;;;2.55;2;;;;;;;4.39;100;95841.17;;;;
2021/02/16 06:05:41;;;;;;;2.55;2;;;;;;;4.39;100;95841.17;;;;
2021/02/16 06:06:42;;;;;;;2.55;2;;;;;;;4.39;100;95841.17;;;;
2021/02/16 06:07:44;;;;;;;2.55;2;;;;;;;4.39;100;95841.17;;;;
2021/02/16 06:08:45;;;;;;;2.55;2;;;;;;;4.39;100;95841.17;;;;
2021/02/16 06:09:51;;;;;;;2.55;2;;;;;;;4.39;100;95841.17;;;;
2021/02/16 06:11:09;;;;;;;2.55;2;;;;;;;4.39;100;95841.17;;;;
2021/02/16 06:12:12;;;;;;;2.2;1.95;;;;;;;4.36;100;95850.48;;;;
2021/02/16 06:13:22;;;;;;;2.2;1.95;;;;;;;4.36;100;95850.48;;;;
2021/02/16 06:14:22;;;;;;;2.2;1.95;;;;;;;4.36;100;95850.48;;;;
2021/02/16 06:15:25;;;;;;;2.2;1.95;;;;;;;4.36;100;95850.48;;;;
2021/02/16 06:16:27;;;;;;;2.2;1.95;;;;;;;4.36;100;95850.48;;;;
2021/02/16 06:17:29;;;;;;;2.2;1.95;;;;;;;4.36;100;95850.48;;;;
2021/02/16 06:18:30;;;;;;;2.2;1.95;;;;;;;4.36;100;95850.48;;;;
2021/02/16 06:19:30;;;;;;;2.2;1.95;;;;;;;4.36;100;95850.48;;;;
2021/02/16 06:20:31;;;;;;;2.2;1.95;;;;;;;4.36;100;95850.48;;;;
2021/02/16 06:21:31;;;;;;;2.2;1.95;;;;;;;4.36;100;95850.48;;;;
2021/02/16 06:22:36;;;;;;;2.2;1.95;;;;;;;4.36;100;95850.48;;;;
2021/02/16 06:23:45;;;;;;;4.2;2.2;;;;;;;4.25;100;95842.42;;;;
2021/02/16 06:24:46;;;;;;;4.2;2.2;;;;;;;4.25;100;95842.42;;;;
2021/02/16 06:25:46;;;;;;;4.2;2.2;;;;;;;4.25;100;95842.42;;;;
2021/02/16 06:26:46;;;;;;;4.2;2.2;;;;;;;4.25;100;95842.42;;;;
2021/02/16 06:27:48;;;;;;;4.2;2.2;;;;;;;4.25;100;95842.42;;;;
2021/02/16 06:28:50;;;;;;;4.2;2.2;;;;;;;4.25;100;95842.42;;;;
2021/02/16 06:29:55;;;;;;;4.2;2.2;;;;;;;4.25;100;95842.42;;;;
2021/02/16 06:31:08;;;;;;;4.2;2.2;;;;;;;4.25;100;95842.42;;;;
2021/02/16 06:32:09;;;;;;;4.2;2.2;;;;;;;4.25;100;95842.42;;;;
2021/02/16 06:33:13;;;;;;;4.2;2.2;;;;;;;4.25;100;95842.42;;;;
2021/02/16 06:34:23;;;;;;;3.5;2.4;;;;;;;4.21;100;95841.62;;;;
2021/02/16 06:35:28;;;;;;;3.5;2.4;;;;;;;4.21;100;95841.62;;;;
2021/02/16 06:36:29;;;;;;;3.5;2.4;;;;;;;4.21;100;95841.62;;;;
2021/02/16 06:37:30;;;;;;;3.5;2.4;;;;;;;4.21;100;95841.62;;;;
2021/02/16 06:38:35;;;;;;;3.5;2.4;;;;;;;4.21;100;95841.62;;;;
2021/02/16 06:39:37;;;;;;;3.5;2.4;;;;;;;4.21;100;95841.62;;;;
2021/02/16 06:40:44;;;;;;;3.5;2.4;;;;;;;4.21;100;95841.62;;;;
2021/02/16 06:41:46;;;;;;;3.5;2.4;;;;;;;4.21;100;95841.62;;;;
2021/02/16 06:42:57;;;;;;;3.5;2.4;;;;;;;4.21;100;95841.62;;;;
2021/02/16 06:43:59;;;;;;;3.5;2.4;;;;;;;4.21;100;95841.62;;;;
2021/02/16 06:45:00;;;;;;;2.2;2;;;;;;;4.19;100;95840.47;;;;
2021/02/16 06:46:01;;;;;;;2.2;2;;;;;;;4.19;100;95840.47;;;;
2021/02/16 06:47:03;;;;;;;2.2;2;;;;;;;4.19;100;95840.47;;;;
2021/02/16 06:48:04;;;;;;;2.2;2;;;;;;;4.19;100;95840.47;;;;
2021/02/16 06:49:07;;;;;;;2.2;2;;;;;;;4.19;100;95840.47;;;;
2021/02/16 06:50:08;;;;;;;2.2;2;;;;;;;4.19;100;95840.47;;;;
2021/02/16 06:51:09;;;;;;;2.2;2;;;;;;;4.19;100;95840.47;;;;
2021/02/16 06:52:10;;;;;;;2.2;2;;;;;;;4.19;100;95840.47;;;;
2021/02/16 06:53:11;;;;;;;2.2;2;;;;;;;4.19;100;95840.47;;;;
2021/02/16 06:54:11;;;;;;;2.2;2;;;;;;;4.19;100;95840.47;;;;
2021/02/16 06:55:13;;;;;;;4.6;2.7;;;;;;;4.26;100;95829.9;;;;